createdAt,value
2019-06-10T00:00:57.193Z,995.97
2019-06-10T00:04:22.863Z,995.91
2019-06-10T00:07:46.286Z,995.82
2019-06-10T00:11:12.131Z,995.77
2019-06-10T00:14:35.509Z,995.78
2019-06-10T00:18:45.983Z,995.83
2019-06-10T00:22:12.358Z,995.85
2019-06-10T00:29:07.763Z,995.72
2019-06-10T00:32:35.237Z,995.66
2019-06-10T00:36:08.660Z,995.61
2019-06-10T00:39:36.771Z,995.5
2019-06-10T00:43:08.961Z,995.45
2019-06-10T00:46:36.700Z,995.41
2019-06-10T00:50:14.683Z,995.38
2019-06-10T00:53:38.380Z,995.36
2019-06-10T00:57:05.793Z,995.36
2019-06-10T01:00:31.937Z,995.31
2019-06-10T01:03:55.361Z,995.32
2019-06-10T01:07:18.770Z,995.33
2019-06-10T01:10:44.697Z,995.31
2019-06-10T01:14:09.275Z,995.25
2019-06-10T01:17:36.928Z,995.2
2019-06-10T01:21:03.770Z,995.21
2019-06-10T01:24:27.422Z,995.2
2019-06-10T01:27:52.093Z,995.21
2019-06-10T01:31:24.728Z,995.16
2019-06-10T01:34:51.022Z,995.08
2019-06-10T01:38:16.886Z,994.97
2019-06-10T01:41:41.710Z,994.81
2019-06-10T01:45:06.462Z,994.71
2019-06-10T01:48:51.808Z,994.72
2019-06-10T01:52:21.383Z,994.66
2019-06-10T01:55:44.885Z,994.63
2019-06-10T01:59:15.692Z,994.67
2019-06-10T02:02:45.662Z,994.74
2019-06-10T02:06:25.084Z,994.73
2019-06-10T02:09:51.999Z,994.75
2019-06-10T02:13:17.946Z,994.8
2019-06-10T02:16:42.066Z,994.8
2019-06-10T02:20:05.493Z,994.76
2019-06-10T02:23:32.161Z,994.74
2019-06-10T02:26:55.590Z,994.7
2019-06-10T02:30:56.092Z,994.65
2019-06-10T02:34:28.107Z,994.64
2019-06-10T02:37:54.600Z,994.62
2019-06-10T02:41:36.638Z,994.57
2019-06-10T02:45:04.607Z,994.56
2019-06-10T02:48:35.929Z,994.56
2019-06-10T02:52:00.353Z,994.57
2019-06-10T02:55:35.558Z,994.5
2019-06-10T02:58:59.081Z,994.41
2019-06-10T03:02:36.938Z,994.36
2019-06-10T03:06:08.620Z,994.28
2019-06-10T03:09:36.430Z,994.27
2019-06-10T03:13:02.938Z,994.22
2019-06-10T03:16:26.463Z,994.16
2019-06-10T03:19:54.046Z,994.16
2019-06-10T03:23:18.537Z,994.19
2019-06-10T03:26:43.474Z,994.18
2019-06-10T03:30:53.592Z,994.15
2019-06-10T03:34:47.842Z,994.14
2019-06-10T03:38:12.948Z,994.14
2019-06-10T03:41:36.389Z,994.15
2019-06-10T03:44:59.888Z,994.16
2019-06-10T03:48:28.661Z,994.21
2019-06-10T03:51:53.529Z,994.2
2019-06-10T03:55:19.205Z,994.16
2019-06-10T03:58:43.728Z,994.2
2019-06-10T04:02:07.176Z,994.22
2019-06-10T04:05:33.285Z,994.19
2019-06-10T04:08:56.742Z,994.18
2019-06-10T04:12:20.196Z,994.18
2019-06-10T04:15:43.764Z,994.2
2019-06-10T04:19:07.201Z,994.13
2019-06-10T04:22:33.311Z,994.12
2019-06-10T04:25:56.731Z,994.1
2019-06-10T04:29:27.637Z,994.03
2019-06-10T04:36:18.278Z,994.01
2019-06-10T04:39:43.344Z,994.06
2019-06-10T04:46:32.716Z,994.08
2019-06-10T04:49:56.187Z,994
2019-06-10T04:53:26.700Z,993.94
2019-06-10T04:56:53.467Z,993.95
2019-06-10T05:00:16.967Z,993.94
2019-06-10T05:03:40.426Z,993.98
2019-06-10T05:07:06.748Z,994.05
2019-06-10T05:10:32.985Z,994.11
2019-06-10T05:13:56.736Z,994.11
2019-06-10T05:17:26.063Z,994.04
2019-06-10T05:20:59.172Z,993.99
2019-06-10T05:24:34.638Z,993.97
2019-06-10T05:27:58.141Z,993.96
2019-06-10T05:31:34.909Z,993.96
2019-06-10T05:34:58.696Z,993.97
2019-06-10T05:38:35.038Z,993.93
2019-06-10T05:41:58.816Z,993.89
2019-06-10T05:45:31.853Z,993.81
2019-06-10T05:48:58.638Z,993.75
2019-06-10T05:52:28.999Z,993.75
2019-06-10T05:55:53.587Z,993.73
2019-06-10T05:59:17.082Z,993.83
2019-06-10T06:02:43.089Z,993.93
2019-06-10T06:06:06.793Z,993.9
2019-06-10T06:09:35.671Z,993.85
2019-06-10T06:12:59.102Z,993.77
2019-06-10T06:19:47.077Z,993.79
2019-06-10T06:23:12.763Z,993.75
2019-06-10T06:53:51.019Z,993.83
2019-06-10T06:57:19.611Z,993.84
2019-06-10T07:01:15.035Z,993.83
2019-06-10T07:04:43.444Z,993.81
2019-06-10T07:08:13.505Z,993.84
2019-06-10T07:11:45.823Z,993.86
2019-06-10T07:15:11.698Z,993.84
2019-06-10T07:18:54.253Z,993.75
2019-06-10T07:25:48.191Z,993.67
2019-06-10T07:32:49.048Z,993.73
2019-06-10T07:36:17.275Z,993.77
2019-06-10T07:39:45.996Z,993.79
2019-06-10T07:43:09.548Z,993.76
2019-06-10T07:46:39.252Z,993.74
2019-06-10T07:50:03.643Z,993.71
2019-06-10T07:56:54.324Z,993.64
2019-06-10T08:00:17.881Z,993.59
2019-06-10T08:06:38.253Z,993.49
2019-06-10T08:10:03.529Z,993.44
2019-06-10T08:13:26.926Z,993.4
2019-06-10T08:16:53.606Z,993.34
2019-06-10T08:20:17.038Z,993.32
2019-06-10T08:23:48.856Z,993.31
2019-06-10T08:27:12.643Z,993.29
2019-06-10T08:30:36.154Z,993.27
2019-06-10T08:33:59.545Z,993.26
2019-06-10T08:37:24.110Z,993.16
2019-06-10T08:40:49.110Z,993.07
2019-06-10T08:44:13.051Z,993.05
2019-06-10T08:47:37.585Z,993.01
2019-06-10T08:51:04.594Z,992.9
2019-06-10T08:54:27.993Z,992.91
2019-06-10T08:57:54.430Z,992.86
2019-06-10T09:01:17.816Z,992.81
2019-06-10T09:04:53.989Z,992.8
2019-06-10T09:08:17.370Z,992.8
2019-06-10T09:11:54.854Z,992.8
2019-06-10T09:15:18.336Z,992.73
2019-06-10T09:18:55.208Z,992.69
2019-06-10T09:22:18.985Z,992.69
2019-06-10T09:25:58.020Z,992.74
2019-06-10T09:29:22.860Z,992.72
2019-06-10T09:33:01.479Z,992.66
2019-06-10T09:36:28.264Z,992.63
2019-06-10T09:40:03.604Z,992.62
2019-06-10T09:43:27.010Z,992.64
2019-06-10T09:47:03.208Z,992.57
2019-06-10T09:50:26.910Z,992.57
2019-06-10T09:54:07.279Z,992.58
2019-06-10T09:57:32.799Z,992.55
2019-06-10T10:00:58.793Z,992.52
2019-06-10T10:04:24.196Z,992.51
2019-06-10T10:07:57.642Z,992.48
2019-06-10T10:11:28.942Z,992.45
2019-06-10T10:14:56.999Z,992.45
2019-06-10T10:18:20.435Z,992.36
2019-06-10T10:21:58.842Z,992.38
2019-06-10T10:25:24.166Z,992.35
2019-06-10T10:28:57.423Z,992.31
2019-06-10T10:32:23.834Z,992.28
2019-06-10T10:35:50.987Z,992.22
2019-06-10T10:39:14.629Z,992.2
2019-06-10T10:43:25.053Z,992.21
2019-06-10T10:46:57.484Z,992.17
2019-06-10T10:50:23.067Z,992.09
2019-06-10T10:54:36.410Z,992.03
2019-06-10T10:58:00.378Z,991.97
2019-06-10T11:01:26.428Z,991.97
2019-06-10T11:04:53.257Z,991.96
2019-06-10T11:08:23.027Z,991.92
2019-06-10T11:11:49.101Z,991.92
2019-06-10T11:15:14.332Z,991.92
2019-06-10T11:18:37.788Z,991.93
2019-06-10T11:22:03.491Z,991.9
2019-06-10T11:25:26.933Z,991.9
2019-06-10T11:28:56.028Z,991.87
2019-06-10T11:32:19.435Z,991.86
2019-06-10T11:35:43.410Z,991.83
2019-06-10T11:39:06.910Z,991.77
2019-06-10T11:42:33.261Z,991.7
2019-06-10T11:46:08.459Z,991.72
2019-06-10T11:49:31.862Z,991.67
2019-06-10T11:53:04.534Z,991.68
2019-06-10T11:56:27.987Z,991.65
2019-06-10T11:59:59.658Z,991.6
2019-06-10T12:03:23.716Z,991.53
2019-06-10T12:06:47.157Z,991.49
2019-06-10T12:10:13.469Z,991.53
2019-06-10T12:13:36.970Z,991.46
2019-06-10T12:17:58.425Z,991.46
2019-06-10T12:25:40.011Z,991.35
2019-06-10T12:29:06.412Z,991.33
2019-06-10T12:32:29.925Z,991.28
2019-06-10T12:36:07.532Z,991.23
2019-06-10T12:39:31.151Z,991.24
2019-06-10T12:43:07.174Z,991.25
2019-06-10T12:46:33.368Z,991.17
2019-06-10T12:49:59.795Z,991.19
2019-06-10T12:53:24.306Z,991.16
2019-06-10T12:56:47.806Z,991.09
2019-06-10T13:00:26.862Z,991.07
2019-06-10T13:03:55.762Z,990.97
2019-06-10T13:07:19.358Z,990.86
2019-06-10T13:10:43.652Z,990.8
2019-06-10T13:14:08.988Z,990.77
2019-06-10T13:17:32.455Z,990.79
2019-06-10T13:21:17.339Z,990.78
2019-06-10T13:30:25.957Z,990.75
2019-06-10T13:33:49.436Z,990.78
2019-06-10T13:37:16.729Z,990.73
2019-06-10T13:40:42.700Z,990.62
2019-06-10T13:44:08.274Z,990.56
2019-06-10T13:47:33.784Z,990.49
2019-06-10T13:50:58.554Z,990.46
2019-06-10T13:54:23.142Z,990.43
2019-06-10T13:57:46.515Z,990.4
2019-06-10T14:01:22.617Z,990.37
2019-06-10T14:04:46.085Z,990.36
2019-06-10T14:08:15.739Z,990.37
2019-06-10T14:11:39.193Z,990.38
2019-06-10T14:15:15.130Z,990.44
2019-06-10T14:18:42.814Z,990.47
2019-06-10T14:22:16.269Z,990.49
2019-06-10T14:25:41.899Z,990.55
2019-06-10T14:29:09.443Z,990.64
2019-06-10T14:32:37.558Z,990.68
2019-06-10T14:42:48.007Z,990.67
2019-06-10T14:46:17.997Z,990.68
2019-06-10T14:49:43.097Z,990.63
2019-06-10T14:53:07.510Z,990.61
2019-06-10T14:56:47.159Z,990.52
2019-06-10T15:00:20.422Z,990.4
2019-06-10T15:03:43.848Z,990.26
2019-06-10T15:07:09.208Z,990.26
2019-06-10T15:10:32.899Z,990.19
2019-06-10T15:13:57.723Z,990.1
2019-06-10T15:17:21.167Z,990.09
2019-06-10T15:20:44.672Z,990
2019-06-10T15:24:09.765Z,990.04
2019-06-10T15:27:34.530Z,990.01
2019-06-10T15:30:57.898Z,989.93
2019-06-10T15:34:21.272Z,989.88
2019-06-10T15:37:44.694Z,989.9
2019-06-10T15:41:12.095Z,989.9
2019-06-10T15:44:56.411Z,989.95
2019-06-10T15:48:25.947Z,989.9
2019-06-10T15:51:49.294Z,989.93
2019-06-10T15:56:24.459Z,989.99
2019-06-10T16:00:29.504Z,990.05
2019-06-10T16:03:53.439Z,990.05
2019-06-10T16:07:25.714Z,990.08
2019-06-10T16:10:49.134Z,990.11
2019-06-10T16:14:14.637Z,990.09
2019-06-10T16:17:38.146Z,990.1
2019-06-10T16:21:05.021Z,990.2
2019-06-10T16:24:28.448Z,990.24
2019-06-10T16:27:55.024Z,990.25
2019-06-10T16:31:18.822Z,990.25
2019-06-10T16:34:44.471Z,990.25
2019-06-10T16:38:07.811Z,990.25
